sensor_id;sensor_type;location;lat;lon;timestamp;P1;durP1;ratioP1;P2;durP2;ratioP2
842;SDS011;407;48.884;9.126;2022-08-14T00:00:47;9.70;;;5.60;;
842;SDS011;407;48.884;9.126;2022-08-14T00:03:17;9.10;;;5.05;;
842;SDS011;407;48.884;9.126;2022-08-14T00:05:46;9.67;;;5.40;;
842;SDS011;407;48.884;9.126;2022-08-14T00:08:12;9.48;;;5.07;;
842;SDS011;407;48.884;9.126;2022-08-14T00:10:38;11.80;;;5.30;;
842;SDS011;407;48.884;9.126;2022-08-14T00:13:04;9.90;;;5.70;;
842;SDS011;407;48.884;9.126;2022-08-14T00:15:31;11.07;;;4.97;;
842;SDS011;407;48.884;9.126;2022-08-14T00:17:59;10.17;;;5.70;;
842;SDS011;407;48.884;9.126;2022-08-14T00:20:26;10.05;;;4.93;;
842;SDS011;407;48.884;9.126;2022-08-14T00:22:53;11.13;;;5.70;;
842;SDS011;407;48.884;9.126;2022-08-14T00:25:19;10.70;;;5.80;;
842;SDS011;407;48.884;9.126;2022-08-14T00:27:45;10.83;;;5.57;;
842;SDS011;407;48.884;9.126;2022-08-14T00:30:11;9.15;;;5.10;;
842;SDS011;407;48.884;9.126;2022-08-14T00:32:38;9.00;;;5.38;;
842;SDS011;407;48.884;9.126;2022-08-14T00:35:05;8.98;;;5.50;;
842;SDS011;407;48.884;9.126;2022-08-14T00:37:32;9.48;;;5.13;;
842;SDS011;407;48.884;9.126;2022-08-14T00:39:59;11.20;;;5.00;;
842;SDS011;407;48.884;9.126;2022-08-14T00:42:25;10.40;;;5.22;;
842;SDS011;407;48.884;9.126;2022-08-14T00:44:52;10.95;;;5.35;;
842;SDS011;407;48.884;9.126;2022-08-14T00:47:19;8.95;;;4.97;;
842;SDS011;407;48.884;9.126;2022-08-14T00:49:49;9.13;;;5.10;;
842;SDS011;407;48.884;9.126;2022-08-14T00:52:17;11.40;;;5.00;;
842;SDS011;407;48.884;9.126;2022-08-14T00:54:43;11.50;;;5.20;;
842;SDS011;407;48.884;9.126;2022-08-14T00:57:10;9.40;;;5.43;;
842;SDS011;407;48.884;9.126;2022-08-14T00:59:36;10.53;;;5.10;;
842;SDS011;407;48.884;9.126;2022-08-14T01:02:02;11.15;;;5.63;;
842;SDS011;407;48.884;9.126;2022-08-14T01:04:29;10.85;;;5.80;;
842;SDS011;407;48.884;9.126;2022-08-14T01:07:00;10.10;;;5.30;;
842;SDS011;407;48.884;9.126;2022-08-14T01:09:26;8.80;;;5.55;;
842;SDS011;407;48.884;9.126;2022-08-14T01:11:54;10.05;;;5.70;;
842;SDS011;407;48.884;9.126;2022-08-14T01:14:21;11.57;;;5.50;;
842;SDS011;407;48.884;9.126;2022-08-14T01:16:47;10.05;;;5.85;;
842;SDS011;407;48.884;9.126;2022-08-14T01:19:13;11.87;;;5.80;;
842;SDS011;407;48.884;9.126;2022-08-14T01:21:58;10.07;;;5.75;;
842;SDS011;407;48.884;9.126;2022-08-14T01:24:24;8.70;;;5.18;;
842;SDS011;407;48.884;9.126;2022-08-14T01:26:50;9.18;;;5.65;;
842;SDS011;407;48.884;9.126;2022-08-14T01:29:17;10.35;;;5.43;;
842;SDS011;407;48.884;9.126;2022-08-14T01:31:43;11.35;;;5.60;;
842;SDS011;407;48.884;9.126;2022-08-14T01:34:19;9.38;;;5.53;;
842;SDS011;407;48.884;9.126;2022-08-14T01:36:47;10.30;;;5.38;;
842;SDS011;407;48.884;9.126;2022-08-14T01:39:15;10.30;;;5.93;;
842;SDS011;407;48.884;9.126;2022-08-14T01:41:43;10.10;;;5.47;;
842;SDS011;407;48.884;9.126;2022-08-14T01:44:16;9.90;;;6.10;;
842;SDS011;407;48.884;9.126;2022-08-14T01:46:42;11.38;;;6.00;;
842;SDS011;407;48.884;9.126;2022-08-14T01:49:10;10.27;;;5.10;;
842;SDS011;407;48.884;9.126;2022-08-14T01:51:39;10.95;;;5.80;;
842;SDS011;407;48.884;9.126;2022-08-14T01:54:07;8.93;;;5.13;;
842;SDS011;407;48.884;9.126;2022-08-14T01:56:38;9.52;;;5.50;;
842;SDS011;407;48.884;9.126;2022-08-14T02:01:43;9.90;;;5.85;;
842;SDS011;407;48.884;9.126;2022-08-14T02:04:10;10.10;;;5.83;;
842;SDS011;407;48.884;9.126;2022-08-14T02:06:36;9.80;;;5.80;;
842;SDS011;407;48.884;9.126;2022-08-14T02:09:05;10.13;;;5.72;;
842;SDS011;407;48.884;9.126;2022-08-14T02:11:32;11.60;;;5.88;;
842;SDS011;407;48.884;9.126;2022-08-14T02:14:03;10.65;;;5.18;;
842;SDS011;407;48.884;9.126;2022-08-14T02:16:33;9.60;;;6.03;;
842;SDS011;407;48.884;9.126;2022-08-14T02:19:07;11.52;;;5.22;;
842;SDS011;407;48.884;9.126;2022-08-14T02:21:35;9.70;;;5.70;;
842;SDS011;407;48.884;9.126;2022-08-14T02:24:03;11.03;;;5.30;;
842;SDS011;407;48.884;9.126;2022-08-14T02:26:30;9.98;;;5.60;;
842;SDS011;407;48.884;9.126;2022-08-14T02:28:59;10.15;;;6.10;;
842;SDS011;407;48.884;9.126;2022-08-14T02:31:29;9.20;;;5.80;;
842;SDS011;407;48.884;9.126;2022-08-14T02:33:57;12.38;;;6.10;;
842;SDS011;407;48.884;9.126;2022-08-14T02:36:24;10.73;;;6.07;;
842;SDS011;407;48.884;9.126;2022-08-14T02:38:51;10.10;;;5.47;;
842;SDS011;407;48.884;9.126;2022-08-14T02:41:16;10.50;;;6.10;;
842;SDS011;407;48.884;9.126;2022-08-14T02:43:42;10.25;;;6.10;;
842;SDS011;407;48.884;9.126;2022-08-14T02:46:09;10.17;;;6.07;;
842;SDS011;407;48.884;9.126;2022-08-14T02:48:36;9.52;;;6.00;;
842;SDS011;407;48.884;9.126;2022-08-14T02:51:15;11.93;;;6.95;;
842;SDS011;407;48.884;9.126;2022-08-14T02:53:41;12.20;;;6.40;;
842;SDS011;407;48.884;9.126;2022-08-14T02:56:09;12.27;;;6.18;;
842;SDS011;407;48.884;9.126;2022-08-14T02:58:40;10.50;;;6.20;;
842;SDS011;407;48.884;9.126;2022-08-14T03:01:08;10.77;;;5.93;;
842;SDS011;407;48.884;9.126;2022-08-14T03:03:34;12.05;;;6.25;;
842;SDS011;407;48.884;9.126;2022-08-14T03:06:05;10.50;;;5.77;;
842;SDS011;407;48.884;9.126;2022-08-14T03:08:31;9.75;;;5.70;;
842;SDS011;407;48.884;9.126;2022-08-14T03:11:01;9.70;;;5.68;;
842;SDS011;407;48.884;9.126;2022-08-14T03:13:30;10.20;;;5.87;;
842;SDS011;407;48.884;9.126;2022-08-14T03:16:04;9.50;;;5.60;;
842;SDS011;407;48.884;9.126;2022-08-14T03:18:31;9.88;;;6.20;;
842;SDS011;407;48.884;9.126;2022-08-14T03:21:04;10.83;;;6.03;;
842;SDS011;407;48.884;9.126;2022-08-14T03:23:32;11.20;;;6.60;;
842;SDS011;407;48.884;9.126;2022-08-14T03:25:58;12.00;;;6.05;;
842;SDS011;407;48.884;9.126;2022-08-14T03:28:25;11.50;;;6.07;;
842;SDS011;407;48.884;9.126;2022-08-14T03:30:53;9.25;;;5.53;;
842;SDS011;407;48.884;9.126;2022-08-14T03:33:20;10.80;;;6.07;;
842;SDS011;407;48.884;9.126;2022-08-14T03:35:45;10.57;;;6.00;;
842;SDS011;407;48.884;9.126;2022-08-14T03:38:11;11.98;;;6.40;;
842;SDS011;407;48.884;9.126;2022-08-14T03:40:39;10.98;;;6.47;;
842;SDS011;407;48.884;9.126;2022-08-14T03:43:05;10.13;;;6.20;;
842;SDS011;407;48.884;9.126;2022-08-14T03:45:32;13.02;;;6.38;;
842;SDS011;407;48.884;9.126;2022-08-14T03:48:00;10.18;;;5.95;;
842;SDS011;407;48.884;9.126;2022-08-14T03:50:47;11.20;;;6.70;;
842;SDS011;407;48.884;9.126;2022-08-14T03:53:16;10.45;;;5.97;;
842;SDS011;407;48.884;9.126;2022-08-14T03:55:42;11.45;;;5.95;;
842;SDS011;407;48.884;9.126;2022-08-14T03:58:08;10.00;;;5.68;;
842;SDS011;407;48.884;9.126;2022-08-14T04:00:35;12.55;;;6.70;;
842;SDS011;407;48.884;9.126;2022-08-14T04:03:02;11.60;;;6.20;;
842;SDS011;407;48.884;9.126;2022-08-14T04:05:29;11.13;;;6.30;;
842;SDS011;407;48.884;9.126;2022-08-14T04:07:56;12.57;;;6.55;;
842;SDS011;407;48.884;9.126;2022-08-14T04:10:22;11.27;;;6.93;;
842;SDS011;407;48.884;9.126;2022-08-14T04:12:48;11.63;;;6.43;;
842;SDS011;407;48.884;9.126;2022-08-14T04:15:14;12.00;;;6.55;;
842;SDS011;407;48.884;9.126;2022-08-14T04:17:42;12.68;;;6.50;;
842;SDS011;407;48.884;9.126;2022-08-14T04:20:08;11.00;;;6.63;;
842;SDS011;407;48.884;9.126;2022-08-14T04:22:34;10.90;;;6.20;;
842;SDS011;407;48.884;9.126;2022-08-14T04:25:00;9.80;;;6.20;;
842;SDS011;407;48.884;9.126;2022-08-14T04:27:27;11.27;;;6.88;;
842;SDS011;407;48.884;9.126;2022-08-14T04:29:53;11.25;;;6.43;;
842;SDS011;407;48.884;9.126;2022-08-14T04:32:19;11.60;;;6.20;;
842;SDS011;407;48.884;9.126;2022-08-14T04:34:50;10.27;;;6.13;;
842;SDS011;407;48.884;9.126;2022-08-14T04:37:18;11.60;;;6.47;;
842;SDS011;407;48.884;9.126;2022-08-14T04:40:04;11.88;;;6.72;;
842;SDS011;407;48.884;9.126;2022-08-14T04:42:49;10.98;;;6.00;;
842;SDS011;407;48.884;9.126;2022-08-14T04:45:33;13.88;;;7.40;;
842;SDS011;407;48.884;9.126;2022-08-14T04:48:05;14.52;;;6.32;;
842;SDS011;407;48.884;9.126;2022-08-14T04:50:50;10.27;;;6.63;;
842;SDS011;407;48.884;9.126;2022-08-14T04:53:17;11.93;;;6.60;;
842;SDS011;407;48.884;9.126;2022-08-14T04:55:45;10.82;;;6.30;;
842;SDS011;407;48.884;9.126;2022-08-14T04:58:16;9.85;;;5.90;;
842;SDS011;407;48.884;9.126;2022-08-14T05:00:43;10.07;;;5.80;;
842;SDS011;407;48.884;9.126;2022-08-14T05:03:09;9.88;;;5.93;;
842;SDS011;407;48.884;9.126;2022-08-14T05:05:35;10.60;;;5.80;;
842;SDS011;407;48.884;9.126;2022-08-14T05:08:08;11.02;;;5.70;;
842;SDS011;407;48.884;9.126;2022-08-14T05:10:42;9.33;;;5.50;;
842;SDS011;407;48.884;9.126;2022-08-14T05:13:16;11.07;;;5.90;;
842;SDS011;407;48.884;9.126;2022-08-14T05:15:42;9.63;;;5.78;;
842;SDS011;407;48.884;9.126;2022-08-14T05:18:11;10.82;;;6.40;;
842;SDS011;407;48.884;9.126;2022-08-14T05:20:39;11.73;;;6.50;;
842;SDS011;407;48.884;9.126;2022-08-14T05:23:07;11.97;;;6.33;;
842;SDS011;407;48.884;9.126;2022-08-14T05:25:34;11.00;;;6.43;;
842;SDS011;407;48.884;9.126;2022-08-14T05:28:11;10.73;;;6.47;;
842;SDS011;407;48.884;9.126;2022-08-14T05:30:49;12.68;;;6.40;;
842;SDS011;407;48.884;9.126;2022-08-14T05:33:20;12.57;;;6.30;;
842;SDS011;407;48.884;9.126;2022-08-14T05:35:48;13.05;;;6.57;;
842;SDS011;407;48.884;9.126;2022-08-14T05:38:16;11.88;;;6.20;;
842;SDS011;407;48.884;9.126;2022-08-14T05:40:43;9.80;;;5.90;;
842;SDS011;407;48.884;9.126;2022-08-14T05:43:10;11.18;;;6.70;;
842;SDS011;407;48.884;9.126;2022-08-14T05:45:36;14.18;;;7.07;;
842;SDS011;407;48.884;9.126;2022-08-14T05:48:02;10.25;;;6.80;;
842;SDS011;407;48.884;9.126;2022-08-14T05:50:30;15.00;;;7.00;;
842;SDS011;407;48.884;9.126;2022-08-14T05:52:56;10.35;;;6.70;;
842;SDS011;407;48.884;9.126;2022-08-14T05:55:22;9.95;;;6.50;;
842;SDS011;407;48.884;9.126;2022-08-14T05:57:57;11.80;;;7.57;;
842;SDS011;407;48.884;9.126;2022-08-14T06:00:26;9.68;;;7.10;;
842;SDS011;407;48.884;9.126;2022-08-14T06:02:55;10.23;;;6.60;;
842;SDS011;407;48.884;9.126;2022-08-14T06:05:24;10.05;;;7.00;;
842;SDS011;407;48.884;9.126;2022-08-14T06:07:50;10.90;;;7.15;;
842;SDS011;407;48.884;9.126;2022-08-14T06:10:16;11.10;;;6.80;;
842;SDS011;407;48.884;9.126;2022-08-14T06:12:42;10.65;;;7.60;;
842;SDS011;407;48.884;9.126;2022-08-14T06:15:08;9.43;;;6.93;;
842;SDS011;407;48.884;9.126;2022-08-14T06:17:44;10.32;;;7.20;;
842;SDS011;407;48.884;9.126;2022-08-14T06:20:11;10.00;;;6.90;;
842;SDS011;407;48.884;9.126;2022-08-14T06:22:38;11.00;;;6.03;;
842;SDS011;407;48.884;9.126;2022-08-14T06:25:04;9.30;;;6.90;;
842;SDS011;407;48.884;9.126;2022-08-14T06:27:34;10.90;;;6.43;;
842;SDS011;407;48.884;9.126;2022-08-14T06:30:05;10.90;;;6.80;;
842;SDS011;407;48.884;9.126;2022-08-14T06:32:32;9.07;;;6.17;;
842;SDS011;407;48.884;9.126;2022-08-14T06:34:58;10.20;;;7.15;;
842;SDS011;407;48.884;9.126;2022-08-14T06:37:24;8.90;;;6.93;;
842;SDS011;407;48.884;9.126;2022-08-14T06:39:51;10.88;;;6.65;;
842;SDS011;407;48.884;9.126;2022-08-14T06:42:17;9.93;;;6.55;;
842;SDS011;407;48.884;9.126;2022-08-14T06:44:42;9.77;;;6.90;;
842;SDS011;407;48.884;9.126;2022-08-14T06:47:09;10.82;;;5.97;;
842;SDS011;407;48.884;9.126;2022-08-14T06:49:35;8.25;;;6.00;;
842;SDS011;407;48.884;9.126;2022-08-14T06:52:01;9.60;;;6.30;;
842;SDS011;407;48.884;9.126;2022-08-14T06:54:27;8.90;;;5.72;;
842;SDS011;407;48.884;9.126;2022-08-14T06:56:53;9.70;;;6.25;;
842;SDS011;407;48.884;9.126;2022-08-14T06:59:19;8.20;;;5.25;;
842;SDS011;407;48.884;9.126;2022-08-14T07:01:44;8.80;;;5.83;;
842;SDS011;407;48.884;9.126;2022-08-14T07:04:29;8.15;;;6.30;;
842;SDS011;407;48.884;9.126;2022-08-14T07:07:13;8.10;;;5.90;;
842;SDS011;407;48.884;9.126;2022-08-14T07:09:39;8.70;;;5.90;;
842;SDS011;407;48.884;9.126;2022-08-14T07:12:04;8.60;;;6.60;;
842;SDS011;407;48.884;9.126;2022-08-14T07:14:30;9.23;;;6.17;;
842;SDS011;407;48.884;9.126;2022-08-14T07:16:56;9.13;;;6.50;;
842;SDS011;407;48.884;9.126;2022-08-14T07:19:21;8.63;;;6.20;;
842;SDS011;407;48.884;9.126;2022-08-14T07:21:48;9.55;;;6.07;;
842;SDS011;407;48.884;9.126;2022-08-14T07:24:13;9.80;;;6.20;;
842;SDS011;407;48.884;9.126;2022-08-14T07:26:39;8.20;;;6.32;;
842;SDS011;407;48.884;9.126;2022-08-14T07:29:05;7.88;;;5.78;;
842;SDS011;407;48.884;9.126;2022-08-14T07:31:31;6.70;;;4.00;;
842;SDS011;407;48.884;9.126;2022-08-14T07:33:56;7.30;;;3.90;;
842;SDS011;407;48.884;9.126;2022-08-14T07:36:22;6.85;;;3.20;;
842;SDS011;407;48.884;9.126;2022-08-14T07:38:47;8.47;;;3.40;;
842;SDS011;407;48.884;9.126;2022-08-14T07:41:14;8.10;;;4.25;;
842;SDS011;407;48.884;9.126;2022-08-14T07:43:40;7.30;;;5.10;;
842;SDS011;407;48.884;9.126;2022-08-14T07:46:07;6.97;;;4.67;;
842;SDS011;407;48.884;9.126;2022-08-14T07:48:36;6.90;;;4.40;;
842;SDS011;407;48.884;9.126;2022-08-14T07:51:07;7.30;;;4.03;;
842;SDS011;407;48.884;9.126;2022-08-14T07:53:33;6.55;;;3.38;;
842;SDS011;407;48.884;9.126;2022-08-14T07:56:00;6.72;;;4.10;;
842;SDS011;407;48.884;9.126;2022-08-14T07:58:26;6.90;;;3.60;;
842;SDS011;407;48.884;9.126;2022-08-14T08:00:55;7.00;;;3.67;;
842;SDS011;407;48.884;9.126;2022-08-14T08:03:22;7.00;;;4.20;;
842;SDS011;407;48.884;9.126;2022-08-14T08:05:51;6.82;;;4.05;;
842;SDS011;407;48.884;9.126;2022-08-14T08:08:17;6.65;;;3.70;;
842;SDS011;407;48.884;9.126;2022-08-14T08:10:43;8.30;;;4.37;;
842;SDS011;407;48.884;9.126;2022-08-14T08:13:11;7.30;;;5.35;;
842;SDS011;407;48.884;9.126;2022-08-14T08:15:39;6.93;;;4.10;;
842;SDS011;407;48.884;9.126;2022-08-14T08:18:08;7.75;;;4.13;;
842;SDS011;407;48.884;9.126;2022-08-14T08:20:36;8.75;;;4.10;;
842;SDS011;407;48.884;9.126;2022-08-14T08:23:05;6.90;;;3.80;;
842;SDS011;407;48.884;9.126;2022-08-14T08:25:35;6.72;;;4.03;;
842;SDS011;407;48.884;9.126;2022-08-14T08:28:03;8.00;;;5.03;;
842;SDS011;407;48.884;9.126;2022-08-14T08:30:35;7.53;;;4.30;;
842;SDS011;407;48.884;9.126;2022-08-14T08:33:02;7.78;;;6.32;;
842;SDS011;407;48.884;9.126;2022-08-14T08:35:36;7.80;;;7.00;;
842;SDS011;407;48.884;9.126;2022-08-14T08:38:16;7.68;;;6.53;;
842;SDS011;407;48.884;9.126;2022-08-14T08:40:45;7.73;;;5.70;;
842;SDS011;407;48.884;9.126;2022-08-14T08:43:20;8.85;;;6.80;;
842;SDS011;407;48.884;9.126;2022-08-14T08:45:52;7.00;;;5.10;;
842;SDS011;407;48.884;9.126;2022-08-14T08:48:23;7.30;;;5.60;;
842;SDS011;407;48.884;9.126;2022-08-14T08:50:56;7.50;;;5.90;;
842;SDS011;407;48.884;9.126;2022-08-14T08:53:28;7.70;;;5.60;;
842;SDS011;407;48.884;9.126;2022-08-14T08:55:56;7.65;;;6.18;;
842;SDS011;407;48.884;9.126;2022-08-14T08:58:23;7.90;;;6.43;;
842;SDS011;407;48.884;9.126;2022-08-14T09:00:51;7.25;;;5.70;;
842;SDS011;407;48.884;9.126;2022-08-14T09:03:26;7.10;;;5.30;;
842;SDS011;407;48.884;9.126;2022-08-14T09:06:00;7.10;;;5.82;;
842;SDS011;407;48.884;9.126;2022-08-14T09:08:31;7.43;;;5.70;;
842;SDS011;407;48.884;9.126;2022-08-14T09:10:59;7.43;;;6.00;;
842;SDS011;407;48.884;9.126;2022-08-14T09:13:27;7.90;;;5.63;;
842;SDS011;407;48.884;9.126;2022-08-14T09:15:54;7.40;;;6.30;;
842;SDS011;407;48.884;9.126;2022-08-14T09:18:20;7.70;;;5.30;;
842;SDS011;407;48.884;9.126;2022-08-14T09:20:47;7.50;;;5.60;;
842;SDS011;407;48.884;9.126;2022-08-14T09:23:15;7.20;;;6.25;;
842;SDS011;407;48.884;9.126;2022-08-14T09:25:41;7.50;;;6.28;;
842;SDS011;407;48.884;9.126;2022-08-14T09:28:09;7.32;;;5.75;;
842;SDS011;407;48.884;9.126;2022-08-14T09:30:37;9.57;;;6.88;;
842;SDS011;407;48.884;9.126;2022-08-14T09:33:10;7.88;;;6.55;;
842;SDS011;407;48.884;9.126;2022-08-14T09:41:51;8.00;;;5.88;;
842;SDS011;407;48.884;9.126;2022-08-14T09:47:39;8.02;;;6.82;;
842;SDS011;407;48.884;9.126;2022-08-14T09:52:59;8.80;;;7.10;;
842;SDS011;407;48.884;9.126;2022-08-14T09:55:31;7.35;;;6.07;;
842;SDS011;407;48.884;9.126;2022-08-14T09:58:18;8.73;;;7.65;;
842;SDS011;407;48.884;9.126;2022-08-14T10:00:46;8.27;;;6.88;;
842;SDS011;407;48.884;9.126;2022-08-14T10:03:30;7.55;;;6.50;;
842;SDS011;407;48.884;9.126;2022-08-14T10:06:05;10.20;;;6.80;;
842;SDS011;407;48.884;9.126;2022-08-14T10:08:42;8.48;;;5.82;;
842;SDS011;407;48.884;9.126;2022-08-14T10:13:46;8.60;;;7.65;;
842;SDS011;407;48.884;9.126;2022-08-14T10:16:18;8.33;;;7.50;;
842;SDS011;407;48.884;9.126;2022-08-14T10:18:59;8.30;;;6.40;;
842;SDS011;407;48.884;9.126;2022-08-14T10:21:29;8.00;;;6.80;;
842;SDS011;407;48.884;9.126;2022-08-14T10:23:54;8.47;;;6.57;;
842;SDS011;407;48.884;9.126;2022-08-14T10:26:20;7.82;;;6.10;;
842;SDS011;407;48.884;9.126;2022-08-14T10:28:47;9.40;;;7.63;;
842;SDS011;407;48.884;9.126;2022-08-14T10:31:24;9.60;;;6.60;;
842;SDS011;407;48.884;9.126;2022-08-14T10:33:57;8.40;;;6.80;;
842;SDS011;407;48.884;9.126;2022-08-14T10:36:31;8.50;;;6.20;;
842;SDS011;407;48.884;9.126;2022-08-14T10:39:00;8.77;;;7.50;;
842;SDS011;407;48.884;9.126;2022-08-14T10:41:40;9.52;;;6.10;;
842;SDS011;407;48.884;9.126;2022-08-14T10:44:16;8.17;;;7.00;;
842;SDS011;407;48.884;9.126;2022-08-14T10:46:50;8.30;;;7.00;;
842;SDS011;407;48.884;9.126;2022-08-14T10:49:19;8.30;;;6.68;;
842;SDS011;407;48.884;9.126;2022-08-14T10:52:06;8.80;;;6.50;;
842;SDS011;407;48.884;9.126;2022-08-14T10:54:38;10.95;;;7.47;;
842;SDS011;407;48.884;9.126;2022-08-14T10:59:44;9.23;;;7.65;;
842;SDS011;407;48.884;9.126;2022-08-14T11:02:22;8.73;;;5.75;;
842;SDS011;407;48.884;9.126;2022-08-14T11:05:10;9.02;;;4.45;;
842;SDS011;407;48.884;9.126;2022-08-14T11:10:23;8.45;;;4.30;;
842;SDS011;407;48.884;9.126;2022-08-14T11:13:14;7.57;;;4.10;;
842;SDS011;407;48.884;9.126;2022-08-14T11:15:41;8.30;;;4.20;;
842;SDS011;407;48.884;9.126;2022-08-14T11:18:08;8.93;;;4.17;;
842;SDS011;407;48.884;9.126;2022-08-14T11:20:36;8.13;;;3.90;;
842;SDS011;407;48.884;9.126;2022-08-14T11:23:03;8.48;;;3.85;;
842;SDS011;407;48.884;9.126;2022-08-14T11:25:33;7.93;;;4.60;;
842;SDS011;407;48.884;9.126;2022-08-14T11:28:01;7.70;;;4.10;;
842;SDS011;407;48.884;9.126;2022-08-14T11:30:29;8.40;;;4.00;;
842;SDS011;407;48.884;9.126;2022-08-14T11:32:55;8.70;;;4.40;;
842;SDS011;407;48.884;9.126;2022-08-14T11:35:24;7.80;;;3.70;;
842;SDS011;407;48.884;9.126;2022-08-14T11:37:55;7.00;;;3.80;;
842;SDS011;407;48.884;9.126;2022-08-14T11:40:24;9.40;;;4.22;;
842;SDS011;407;48.884;9.126;2022-08-14T11:42:52;7.60;;;4.00;;
842;SDS011;407;48.884;9.126;2022-08-14T11:45:23;9.00;;;4.50;;
842;SDS011;407;48.884;9.126;2022-08-14T11:47:52;7.00;;;4.05;;
842;SDS011;407;48.884;9.126;2022-08-14T11:50:21;8.40;;;4.80;;
842;SDS011;407;48.884;9.126;2022-08-14T11:52:52;8.10;;;4.10;;
842;SDS011;407;48.884;9.126;2022-08-14T11:55:21;8.70;;;4.30;;
842;SDS011;407;48.884;9.126;2022-08-14T11:58:03;8.67;;;4.30;;
842;SDS011;407;48.884;9.126;2022-08-14T12:00:32;7.80;;;4.50;;
842;SDS011;407;48.884;9.126;2022-08-14T12:02:59;7.33;;;4.00;;
842;SDS011;407;48.884;9.126;2022-08-14T12:07:55;7.50;;;3.93;;
842;SDS011;407;48.884;9.126;2022-08-14T12:10:22;7.75;;;3.85;;
842;SDS011;407;48.884;9.126;2022-08-14T12:12:47;7.53;;;3.88;;
842;SDS011;407;48.884;9.126;2022-08-14T12:15:27;7.55;;;4.07;;
842;SDS011;407;48.884;9.126;2022-08-14T12:17:57;7.70;;;4.00;;
842;SDS011;407;48.884;9.126;2022-08-14T12:20:33;7.40;;;3.95;;
842;SDS011;407;48.884;9.126;2022-08-14T12:23:03;7.65;;;4.00;;
842;SDS011;407;48.884;9.126;2022-08-14T12:25:31;8.18;;;4.00;;
842;SDS011;407;48.884;9.126;2022-08-14T12:28:00;7.28;;;4.38;;
842;SDS011;407;48.884;9.126;2022-08-14T12:30:34;8.15;;;4.00;;
842;SDS011;407;48.884;9.126;2022-08-14T12:33:05;7.15;;;4.07;;
842;SDS011;407;48.884;9.126;2022-08-14T12:35:45;7.57;;;3.80;;
842;SDS011;407;48.884;9.126;2022-08-14T12:38:11;8.40;;;4.10;;
842;SDS011;407;48.884;9.126;2022-08-14T12:40:50;8.68;;;3.63;;
842;SDS011;407;48.884;9.126;2022-08-14T12:43:17;7.43;;;4.00;;
842;SDS011;407;48.884;9.126;2022-08-14T12:45:45;7.70;;;4.20;;
842;SDS011;407;48.884;9.126;2022-08-14T12:48:19;8.50;;;4.35;;
842;SDS011;407;48.884;9.126;2022-08-14T12:50:46;8.60;;;3.42;;
842;SDS011;407;48.884;9.126;2022-08-14T12:53:12;7.43;;;3.80;;
842;SDS011;407;48.884;9.126;2022-08-14T12:55:39;7.40;;;3.70;;
842;SDS011;407;48.884;9.126;2022-08-14T12:58:07;8.30;;;3.80;;
842;SDS011;407;48.884;9.126;2022-08-14T13:00:35;7.60;;;4.03;;
842;SDS011;407;48.884;9.126;2022-08-14T13:03:03;7.90;;;3.85;;
842;SDS011;407;48.884;9.126;2022-08-14T13:05:30;7.43;;;3.92;;
842;SDS011;407;48.884;9.126;2022-08-14T13:08:00;7.82;;;3.30;;
842;SDS011;407;48.884;9.126;2022-08-14T13:10:33;7.45;;;3.70;;
842;SDS011;407;48.884;9.126;2022-08-14T13:12:59;8.13;;;3.50;;
842;SDS011;407;48.884;9.126;2022-08-14T13:15:26;7.15;;;3.50;;
842;SDS011;407;48.884;9.126;2022-08-14T13:17:53;7.28;;;3.60;;
842;SDS011;407;48.884;9.126;2022-08-14T13:20:25;7.10;;;3.00;;
842;SDS011;407;48.884;9.126;2022-08-14T13:22:53;6.45;;;3.22;;
842;SDS011;407;48.884;9.126;2022-08-14T13:25:20;6.93;;;3.70;;
842;SDS011;407;48.884;9.126;2022-08-14T13:27:49;8.90;;;3.60;;
842;SDS011;407;48.884;9.126;2022-08-14T13:30:18;7.30;;;3.50;;
842;SDS011;407;48.884;9.126;2022-08-14T13:32:46;8.00;;;3.50;;
842;SDS011;407;48.884;9.126;2022-08-14T13:35:13;7.50;;;3.90;;
842;SDS011;407;48.884;9.126;2022-08-14T13:37:40;7.80;;;3.67;;
842;SDS011;407;48.884;9.126;2022-08-14T13:40:08;7.20;;;3.57;;
842;SDS011;407;48.884;9.126;2022-08-14T13:42:38;6.65;;;3.05;;
842;SDS011;407;48.884;9.126;2022-08-14T13:45:06;7.03;;;3.33;;
842;SDS011;407;48.884;9.126;2022-08-14T13:47:33;7.30;;;3.03;;
842;SDS011;407;48.884;9.126;2022-08-14T13:50:00;7.10;;;3.30;;
842;SDS011;407;48.884;9.126;2022-08-14T13:52:32;6.30;;;2.97;;
842;SDS011;407;48.884;9.126;2022-08-14T13:55:04;8.13;;;2.80;;
842;SDS011;407;48.884;9.126;2022-08-14T13:57:31;8.30;;;2.87;;
842;SDS011;407;48.884;9.126;2022-08-14T14:00:00;7.10;;;3.30;;
842;SDS011;407;48.884;9.126;2022-08-14T14:02:41;7.00;;;3.30;;
842;SDS011;407;48.884;9.126;2022-08-14T14:05:09;6.20;;;2.80;;
842;SDS011;407;48.884;9.126;2022-08-14T14:07:38;6.70;;;3.30;;
842;SDS011;407;48.884;9.126;2022-08-14T14:10:16;7.70;;;3.40;;
842;SDS011;407;48.884;9.126;2022-08-14T14:12:44;6.90;;;3.10;;
842;SDS011;407;48.884;9.126;2022-08-14T14:15:13;9.00;;;3.30;;
842;SDS011;407;48.884;9.126;2022-08-14T14:17:41;6.28;;;2.90;;
842;SDS011;407;48.884;9.126;2022-08-14T14:20:08;6.70;;;3.13;;
842;SDS011;407;48.884;9.126;2022-08-14T14:22:39;6.00;;;2.60;;
842;SDS011;407;48.884;9.126;2022-08-14T14:25:09;6.43;;;2.50;;
842;SDS011;407;48.884;9.126;2022-08-14T14:27:38;6.68;;;2.83;;
842;SDS011;407;48.884;9.126;2022-08-14T14:30:06;6.70;;;2.80;;
842;SDS011;407;48.884;9.126;2022-08-14T14:32:33;5.82;;;2.70;;
842;SDS011;407;48.884;9.126;2022-08-14T14:35:02;5.97;;;2.47;;
842;SDS011;407;48.884;9.126;2022-08-14T14:37:29;6.38;;;2.67;;
842;SDS011;407;48.884;9.126;2022-08-14T14:39:56;5.70;;;2.50;;
842;SDS011;407;48.884;9.126;2022-08-14T14:42:23;6.20;;;2.70;;
842;SDS011;407;48.884;9.126;2022-08-14T14:44:53;6.70;;;2.70;;
842;SDS011;407;48.884;9.126;2022-08-14T14:47:24;5.80;;;2.50;;
842;SDS011;407;48.884;9.126;2022-08-14T14:49:50;6.13;;;2.72;;
842;SDS011;407;48.884;9.126;2022-08-14T14:52:17;6.10;;;3.03;;
842;SDS011;407;48.884;9.126;2022-08-14T14:54:47;6.50;;;2.80;;
842;SDS011;407;48.884;9.126;2022-08-14T14:57:13;7.00;;;2.70;;
842;SDS011;407;48.884;9.126;2022-08-14T14:59:40;6.03;;;2.70;;
842;SDS011;407;48.884;9.126;2022-08-14T15:02:07;6.82;;;3.05;;
842;SDS011;407;48.884;9.126;2022-08-14T15:04:35;6.40;;;3.03;;
842;SDS011;407;48.884;9.126;2022-08-14T15:07:03;6.20;;;2.70;;
842;SDS011;407;48.884;9.126;2022-08-14T15:09:29;5.95;;;2.95;;
842;SDS011;407;48.884;9.126;2022-08-14T15:11:57;6.60;;;2.78;;
842;SDS011;407;48.884;9.126;2022-08-14T15:14:23;7.23;;;3.17;;
842;SDS011;407;48.884;9.126;2022-08-14T15:16:49;7.72;;;2.83;;
842;SDS011;407;48.884;9.126;2022-08-14T15:19:14;7.05;;;2.90;;
842;SDS011;407;48.884;9.126;2022-08-14T15:21:40;6.20;;;2.70;;
842;SDS011;407;48.884;9.126;2022-08-14T15:24:06;6.60;;;2.80;;
842;SDS011;407;48.884;9.126;2022-08-14T15:26:32;6.40;;;2.63;;
842;SDS011;407;48.884;9.126;2022-08-14T15:29:00;6.43;;;2.72;;
842;SDS011;407;48.884;9.126;2022-08-14T15:31:27;6.20;;;3.00;;
842;SDS011;407;48.884;9.126;2022-08-14T15:33:52;6.30;;;2.73;;
842;SDS011;407;48.884;9.126;2022-08-14T15:36:39;6.07;;;2.60;;
842;SDS011;407;48.884;9.126;2022-08-14T15:39:08;6.97;;;2.58;;
842;SDS011;407;48.884;9.126;2022-08-14T15:41:34;7.53;;;2.42;;
842;SDS011;407;48.884;9.126;2022-08-14T15:44:00;6.93;;;2.75;;
842;SDS011;407;48.884;9.126;2022-08-14T15:46:26;8.35;;;3.38;;
842;SDS011;407;48.884;9.126;2022-08-14T15:48:52;6.32;;;2.90;;
842;SDS011;407;48.884;9.126;2022-08-14T15:51:18;6.77;;;3.20;;
842;SDS011;407;48.884;9.126;2022-08-14T15:53:44;8.00;;;2.90;;
842;SDS011;407;48.884;9.126;2022-08-14T15:56:10;6.50;;;2.60;;
842;SDS011;407;48.884;9.126;2022-08-14T15:58:36;7.20;;;2.90;;
842;SDS011;407;48.884;9.126;2022-08-14T16:01:02;7.10;;;2.90;;
842;SDS011;407;48.884;9.126;2022-08-14T16:03:48;6.60;;;2.75;;
842;SDS011;407;48.884;9.126;2022-08-14T16:06:17;6.95;;;2.75;;
842;SDS011;407;48.884;9.126;2022-08-14T16:08:46;6.40;;;2.50;;
842;SDS011;407;48.884;9.126;2022-08-14T16:11:16;6.40;;;3.00;;
842;SDS011;407;48.884;9.126;2022-08-14T16:13:41;6.72;;;2.95;;
842;SDS011;407;48.884;9.126;2022-08-14T16:16:14;6.00;;;2.60;;